sensor_id;sensor_type;location;lat;lon;timestamp;pressure;altitude;pressure_sealevel;temperature;humidity
78845;BME280;68195;50.854;2.860;2023-10-08T00:00:04;102358.34;;;15.71;100.00
78845;BME280;68195;50.854;2.860;2023-10-08T00:02:49;102355.91;;;15.66;100.00
78845;BME280;68195;50.854;2.860;2023-10-08T00:05:15;102344.13;;;15.54;100.00
78845;BME280;68195;50.854;2.860;2023-10-08T00:07:41;102222.47;;;14.89;100.00
78845;BME280;68195;50.854;2.860;2023-10-08T00:10:08;102345.88;;;15.55;100.00
78845;BME280;68195;50.854;2.860;2023-10-08T00:12:38;102262.72;;;15.12;100.00
78845;BME280;68195;50.854;2.860;2023-10-08T00:15:06;102335.19;;;15.58;100.00
78845;BME280;68195;50.854;2.860;2023-10-08T00:17:37;102257.00;;;15.02;100.00
78845;BME280;68195;50.854;2.860;2023-10-08T00:20:03;102309.59;;;15.42;100.00
78845;BME280;68195;50.854;2.860;2023-10-08T00:22:31;102359.41;;;15.67;100.00
78845;BME280;68195;50.854;2.860;2023-10-08T00:25:01;102320.09;;;15.43;100.00
78845;BME280;68195;50.854;2.860;2023-10-08T00:27:26;102350.19;;;15.56;100.00
78845;BME280;68195;50.854;2.860;2023-10-08T00:29:52;102302.97;;;15.33;100.00
78845;BME280;68195;50.854;2.860;2023-10-08T00:32:17;102330.59;;;15.43;100.00
78845;BME280;68195;50.854;2.860;2023-10-08T00:34:43;102242.69;;;14.89;100.00
78845;BME280;68195;50.854;2.860;2023-10-08T00:37:10;102295.66;;;15.21;100.00
78845;BME280;68195;50.854;2.860;2023-10-08T00:39:36;102316.66;;;15.41;100.00
78845;BME280;68195;50.854;2.860;2023-10-08T00:42:05;102353.38;;;15.44;100.00
78845;BME280;68195;50.854;2.860;2023-10-08T00:44:33;102339.72;;;15.36;100.00
78845;BME280;68195;50.854;2.860;2023-10-08T00:47:05;102329.13;;;15.17;100.00
78845;BME280;68195;50.854;2.860;2023-10-08T00:49:32;102357.31;;;15.15;100.00
78845;BME280;68195;50.854;2.860;2023-10-08T00:52:12;102361.09;;;15.28;100.00
78845;BME280;68195;50.854;2.860;2023-10-08T00:54:40;102357.63;;;15.28;100.00
78845;BME280;68195;50.854;2.860;2023-10-08T00:57:28;102350.63;;;15.27;100.00
78845;BME280;68195;50.854;2.860;2023-10-08T00:59:55;102363.16;;;15.22;100.00
78845;BME280;68195;50.854;2.860;2023-10-08T01:02:26;102345.84;;;15.16;100.00
78845;BME280;68195;50.854;2.860;2023-10-08T01:04:55;102305.41;;;14.77;100.00
78845;BME280;68195;50.854;2.860;2023-10-08T01:07:25;102323.28;;;14.90;100.00
78845;BME280;68195;50.854;2.860;2023-10-08T01:09:50;102367.97;;;15.12;100.00
78845;BME280;68195;50.854;2.860;2023-10-08T01:14:45;102350.97;;;14.98;100.00
78845;BME280;68195;50.854;2.860;2023-10-08T01:17:13;102360.91;;;15.12;100.00
78845;BME280;68195;50.854;2.860;2023-10-08T01:19:50;102351.84;;;14.99;100.00
78845;BME280;68195;50.854;2.860;2023-10-08T01:22:24;102375.13;;;15.08;100.00
78845;BME280;68195;50.854;2.860;2023-10-08T01:24:56;102247.44;;;13.95;100.00
78845;BME280;68195;50.854;2.860;2023-10-08T01:27:29;102360.50;;;14.81;100.00
78845;BME280;68195;50.854;2.860;2023-10-08T01:30:00;102338.13;;;14.70;100.00
78845;BME280;68195;50.854;2.860;2023-10-08T01:32:37;102337.16;;;14.51;100.00
78845;BME280;68195;50.854;2.860;2023-10-08T01:35:03;102325.72;;;14.52;100.00
78845;BME280;68195;50.854;2.860;2023-10-08T01:37:50;102319.97;;;14.64;100.00
78845;BME280;68195;50.854;2.860;2023-10-08T01:40:19;102312.50;;;14.75;100.00
78845;BME280;68195;50.854;2.860;2023-10-08T01:42:46;102227.44;;;14.13;100.00
78845;BME280;68195;50.854;2.860;2023-10-08T01:45:17;102339.91;;;14.48;100.00
78845;BME280;68195;50.854;2.860;2023-10-08T01:47:47;102255.50;;;14.13;100.00
78845;BME280;68195;50.854;2.860;2023-10-08T01:50:21;102303.50;;;14.16;100.00
78845;BME280;68195;50.854;2.860;2023-10-08T01:52:47;102330.81;;;14.34;100.00
78845;BME280;68195;50.854;2.860;2023-10-08T01:55:13;102362.19;;;14.61;100.00
78845;BME280;68195;50.854;2.860;2023-10-08T01:57:47;102310.44;;;14.40;100.00
78845;BME280;68195;50.854;2.860;2023-10-08T02:00:15;102301.34;;;14.48;100.00
78845;BME280;68195;50.854;2.860;2023-10-08T02:02:48;102359.47;;;14.85;100.00
78845;BME280;68195;50.854;2.860;2023-10-08T02:05:18;102311.03;;;14.68;100.00
78845;BME280;68195;50.854;2.860;2023-10-08T02:07:46;102360.09;;;14.69;100.00
78845;BME280;68195;50.854;2.860;2023-10-08T02:10:12;102345.38;;;14.86;100.00
78845;BME280;68195;50.854;2.860;2023-10-08T02:12:39;102318.63;;;14.76;100.00
78845;BME280;68195;50.854;2.860;2023-10-08T02:15:08;102351.38;;;14.89;100.00
78845;BME280;68195;50.854;2.860;2023-10-08T02:17:39;102255.66;;;14.30;100.00
78845;BME280;68195;50.854;2.860;2023-10-08T02:20:08;102238.16;;;14.29;100.00
78845;BME280;68195;50.854;2.860;2023-10-08T02:22:37;102233.69;;;14.31;100.00
78845;BME280;68195;50.854;2.860;2023-10-08T02:25:07;102266.13;;;14.52;100.00
78845;BME280;68195;50.854;2.860;2023-10-08T02:27:36;102288.50;;;14.63;100.00
78845;BME280;68195;50.854;2.860;2023-10-08T02:30:03;102308.41;;;14.68;100.00
78845;BME280;68195;50.854;2.860;2023-10-08T02:32:33;102320.31;;;14.77;100.00
78845;BME280;68195;50.854;2.860;2023-10-08T02:35:03;102331.81;;;14.74;100.00
78845;BME280;68195;50.854;2.860;2023-10-08T02:37:29;102335.84;;;14.83;100.00
78845;BME280;68195;50.854;2.860;2023-10-08T02:39:56;102334.84;;;14.86;100.00
78845;BME280;68195;50.854;2.860;2023-10-08T02:42:23;102261.38;;;14.40;100.00
78845;BME280;68195;50.854;2.860;2023-10-08T02:44:49;102342.25;;;14.77;100.00
78845;BME280;68195;50.854;2.860;2023-10-08T02:47:16;102336.59;;;14.87;100.00
78845;BME280;68195;50.854;2.860;2023-10-08T02:49:46;102329.72;;;14.83;100.00
78845;BME280;68195;50.854;2.860;2023-10-08T02:52:13;102327.44;;;14.95;100.00
78845;BME280;68195;50.854;2.860;2023-10-08T02:54:41;102329.81;;;15.02;100.00
78845;BME280;68195;50.854;2.860;2023-10-08T02:57:06;102341.97;;;15.04;100.00
78845;BME280;68195;50.854;2.860;2023-10-08T02:59:39;102305.00;;;14.87;100.00
78845;BME280;68195;50.854;2.860;2023-10-08T03:02:11;102308.81;;;15.00;100.00
78845;BME280;68195;50.854;2.860;2023-10-08T03:04:44;102305.28;;;15.01;100.00
78845;BME280;68195;50.854;2.860;2023-10-08T03:07:16;102318.69;;;14.95;100.00
78845;BME280;68195;50.854;2.860;2023-10-08T03:09:49;102338.22;;;15.10;100.00
78845;BME280;68195;50.854;2.860;2023-10-08T03:12:28;102291.81;;;14.88;100.00
78845;BME280;68195;50.854;2.860;2023-10-08T03:14:58;102288.59;;;14.82;100.00
78845;BME280;68195;50.854;2.860;2023-10-08T03:17:29;102286.91;;;14.79;100.00
78845;BME280;68195;50.854;2.860;2023-10-08T03:19:56;102323.25;;;15.12;100.00
78845;BME280;68195;50.854;2.860;2023-10-08T03:22:44;102331.72;;;15.18;100.00
78845;BME280;68195;50.854;2.860;2023-10-08T03:25:12;102320.88;;;15.06;100.00
78845;BME280;68195;50.854;2.860;2023-10-08T03:27:45;102295.94;;;14.94;100.00
78845;BME280;68195;50.854;2.860;2023-10-08T03:30:11;102340.25;;;14.83;100.00
78845;BME280;68195;50.854;2.860;2023-10-08T03:32:43;102319.47;;;14.76;100.00
78845;BME280;68195;50.854;2.860;2023-10-08T03:35:21;102330.59;;;14.63;100.00
78845;BME280;68195;50.854;2.860;2023-10-08T03:37:53;102348.41;;;14.76;100.00
78845;BME280;68195;50.854;2.860;2023-10-08T03:40:39;102334.66;;;14.70;100.00
78845;BME280;68195;50.854;2.860;2023-10-08T03:43:08;102284.78;;;14.46;100.00
78845;BME280;68195;50.854;2.860;2023-10-08T03:45:50;102330.72;;;14.80;100.00
78845;BME280;68195;50.854;2.860;2023-10-08T03:48:20;102350.19;;;14.76;100.00
78845;BME280;68195;50.854;2.860;2023-10-08T03:50:51;102316.66;;;14.39;100.00
78845;BME280;68195;50.854;2.860;2023-10-08T03:53:33;102280.63;;;14.41;100.00
78845;BME280;68195;50.854;2.860;2023-10-08T03:56:17;102296.50;;;14.60;100.00
78845;BME280;68195;50.854;2.860;2023-10-08T03:58:45;102343.69;;;14.85;100.00
78845;BME280;68195;50.854;2.860;2023-10-08T04:01:12;102326.66;;;14.73;100.00
78845;BME280;68195;50.854;2.860;2023-10-08T04:03:44;102352.41;;;14.43;100.00
78845;BME280;68195;50.854;2.860;2023-10-08T04:06:21;102352.72;;;14.57;100.00
78845;BME280;68195;50.854;2.860;2023-10-08T04:08:55;102347.63;;;14.52;100.00
78845;BME280;68195;50.854;2.860;2023-10-08T04:11:32;102298.19;;;14.18;100.00
78845;BME280;68195;50.854;2.860;2023-10-08T04:14:03;102310.50;;;14.38;100.00
78845;BME280;68195;50.854;2.860;2023-10-08T04:16:32;102353.72;;;14.75;100.00
78845;BME280;68195;50.854;2.860;2023-10-08T04:19:03;102357.66;;;14.65;100.00
78845;BME280;68195;50.854;2.860;2023-10-08T04:21:31;102315.53;;;14.44;100.00
78845;BME280;68195;50.854;2.860;2023-10-08T04:23:59;102304.59;;;14.33;100.00
78845;BME280;68195;50.854;2.860;2023-10-08T04:26:31;102318.28;;;14.41;100.00
78845;BME280;68195;50.854;2.860;2023-10-08T04:29:01;102288.97;;;14.30;100.00
78845;BME280;68195;50.854;2.860;2023-10-08T04:31:31;102365.13;;;14.75;100.00
78845;BME280;68195;50.854;2.860;2023-10-08T04:34:06;102360.69;;;14.76;100.00
78845;BME280;68195;50.854;2.860;2023-10-08T04:36:43;102375.03;;;14.23;100.00
78845;BME280;68195;50.854;2.860;2023-10-08T04:39:11;102360.53;;;14.36;100.00
78845;BME280;68195;50.854;2.860;2023-10-08T04:41:47;102356.69;;;14.45;100.00
78845;BME280;68195;50.854;2.860;2023-10-08T04:44:14;102354.16;;;14.42;100.00
78845;BME280;68195;50.854;2.860;2023-10-08T04:46:43;102369.41;;;14.56;100.00
78845;BME280;68195;50.854;2.860;2023-10-08T04:49:16;102361.19;;;14.42;100.00
78845;BME280;68195;50.854;2.860;2023-10-08T04:52:05;102318.03;;;14.25;100.00
78845;BME280;68195;50.854;2.860;2023-10-08T04:54:39;102338.00;;;14.29;100.00
78845;BME280;68195;50.854;2.860;2023-10-08T04:57:06;102370.63;;;14.47;100.00
78845;BME280;68195;50.854;2.860;2023-10-08T04:59:33;102357.63;;;14.21;100.00
78845;BME280;68195;50.854;2.860;2023-10-08T05:02:00;102368.53;;;14.33;100.00
78845;BME280;68195;50.854;2.860;2023-10-08T05:04:46;102355.31;;;14.35;100.00
78845;BME280;68195;50.854;2.860;2023-10-08T05:07:19;102309.31;;;14.03;100.00
78845;BME280;68195;50.854;2.860;2023-10-08T05:10:06;102339.06;;;14.25;100.00
78845;BME280;68195;50.854;2.860;2023-10-08T05:12:33;102368.28;;;14.40;100.00
78845;BME280;68195;50.854;2.860;2023-10-08T05:14:59;102349.66;;;14.24;100.00
78845;BME280;68195;50.854;2.860;2023-10-08T05:17:43;102354.16;;;14.20;100.00
78845;BME280;68195;50.854;2.860;2023-10-08T05:20:15;102304.00;;;13.82;100.00
78845;BME280;68195;50.854;2.860;2023-10-08T05:23:18;102335.63;;;14.01;100.00
78845;BME280;68195;50.854;2.860;2023-10-08T05:25:51;102351.78;;;14.14;100.00
78845;BME280;68195;50.854;2.860;2023-10-08T05:28:24;102374.50;;;14.15;100.00
78845;BME280;68195;50.854;2.860;2023-10-08T05:30:50;102381.38;;;14.19;100.00
78845;BME280;68195;50.854;2.860;2023-10-08T05:33:42;102373.72;;;14.13;100.00
78845;BME280;68195;50.854;2.860;2023-10-08T05:36:16;102375.41;;;14.14;100.00
78845;BME280;68195;50.854;2.860;2023-10-08T05:38:53;102376.34;;;14.13;100.00
78845;BME280;68195;50.854;2.860;2023-10-08T05:41:41;102375.22;;;14.19;100.00
78845;BME280;68195;50.854;2.860;2023-10-08T05:44:17;102390.16;;;14.18;100.00
78845;BME280;68195;50.854;2.860;2023-10-08T05:46:45;102372.00;;;14.12;100.00
78845;BME280;68195;50.854;2.860;2023-10-08T05:49:32;102306.38;;;13.65;100.00
78845;BME280;68195;50.854;2.860;2023-10-08T05:51:58;102375.41;;;14.14;100.00
78845;BME280;68195;50.854;2.860;2023-10-08T05:54:30;102377.19;;;14.13;100.00
78845;BME280;68195;50.854;2.860;2023-10-08T05:56:57;102357.38;;;14.05;100.00
78845;BME280;68195;50.854;2.860;2023-10-08T05:59:49;102339.47;;;13.92;100.00
78845;BME280;68195;50.854;2.860;2023-10-08T06:02:24;102357.63;;;13.99;100.00
78845;BME280;68195;50.854;2.860;2023-10-08T06:05:15;102382.84;;;14.03;100.00
78845;BME280;68195;50.854;2.860;2023-10-08T06:07:54;102354.25;;;13.95;100.00
78845;BME280;68195;50.854;2.860;2023-10-08T06:10:20;102383.44;;;14.11;100.00
78845;BME280;68195;50.854;2.860;2023-10-08T06:13:12;102389.47;;;14.13;100.00
78845;BME280;68195;50.854;2.860;2023-10-08T06:15:43;102360.66;;;13.88;100.00
78845;BME280;68195;50.854;2.860;2023-10-08T06:18:28;102385.72;;;13.97;100.00
78845;BME280;68195;50.854;2.860;2023-10-08T06:20:58;102318.97;;;13.57;100.00
78845;BME280;68195;50.854;2.860;2023-10-08T06:23:25;102388.91;;;14.05;100.00
78845;BME280;68195;50.854;2.860;2023-10-08T06:25:52;102385.25;;;14.09;100.00
78845;BME280;68195;50.854;2.860;2023-10-08T06:28:31;102390.47;;;14.10;100.00
78845;BME280;68195;50.854;2.860;2023-10-08T06:31:01;102384.28;;;14.11;100.00
78845;BME280;68195;50.854;2.860;2023-10-08T06:33:32;102386.91;;;14.11;100.00
78845;BME280;68195;50.854;2.860;2023-10-08T06:36:02;102376.69;;;14.04;100.00
78845;BME280;68195;50.854;2.860;2023-10-08T06:38:32;102384.63;;;14.02;100.00
78845;BME280;68195;50.854;2.860;2023-10-08T06:41:02;102381.66;;;14.11;100.00
78845;BME280;68195;50.854;2.860;2023-10-08T06:43:34;102344.09;;;13.86;100.00
78845;BME280;68195;50.854;2.860;2023-10-08T06:46:05;102331.16;;;13.81;100.00
78845;BME280;68195;50.854;2.860;2023-10-08T06:48:40;102391.13;;;14.15;100.00
78845;BME280;68195;50.854;2.860;2023-10-08T06:51:10;102308.19;;;13.63;100.00
78845;BME280;68195;50.854;2.860;2023-10-08T06:53:42;102361.19;;;13.98;100.00
78845;BME280;68195;50.854;2.860;2023-10-08T06:56:16;102389.53;;;14.11;100.00
78845;BME280;68195;50.854;2.860;2023-10-08T06:58:45;102396.88;;;14.25;100.00
78845;BME280;68195;50.854;2.860;2023-10-08T07:01:16;102399.44;;;14.27;100.00
78845;BME280;68195;50.854;2.860;2023-10-08T07:03:47;102316.38;;;13.79;100.00
78845;BME280;68195;50.854;2.860;2023-10-08T07:06:14;102375.31;;;14.17;100.00
78845;BME280;68195;50.854;2.860;2023-10-08T07:08:51;102403.25;;;14.42;100.00
78845;BME280;68195;50.854;2.860;2023-10-08T07:11:25;102391.28;;;14.34;100.00
78845;BME280;68195;50.854;2.860;2023-10-08T07:13:54;102361.91;;;14.23;100.00
78845;BME280;68195;50.854;2.860;2023-10-08T07:16:22;102351.66;;;14.17;100.00
78845;BME280;68195;50.854;2.860;2023-10-08T07:18:48;102411.34;;;14.59;100.00
78845;BME280;68195;50.854;2.860;2023-10-08T07:21:18;102346.50;;;14.14;100.00
78845;BME280;68195;50.854;2.860;2023-10-08T07:23:43;102312.16;;;13.97;100.00
78845;BME280;68195;50.854;2.860;2023-10-08T07:26:22;102412.69;;;14.69;100.00
78845;BME280;68195;50.854;2.860;2023-10-08T07:28:52;102394.69;;;14.60;100.00
78845;BME280;68195;50.854;2.860;2023-10-08T07:31:23;102329.22;;;14.30;100.00
78845;BME280;68195;50.854;2.860;2023-10-08T07:33:51;102411.03;;;14.89;100.00
78845;BME280;68195;50.854;2.860;2023-10-08T07:36:38;102411.81;;;14.91;100.00
78845;BME280;68195;50.854;2.860;2023-10-08T07:39:03;102341.50;;;14.52;100.00
78845;BME280;68195;50.854;2.860;2023-10-08T07:41:34;102417.09;;;15.11;100.00
78845;BME280;68195;50.854;2.860;2023-10-08T07:43:59;102418.28;;;15.25;100.00
78845;BME280;68195;50.854;2.860;2023-10-08T07:46:27;102421.22;;;15.37;100.00
78845;BME280;68195;50.854;2.860;2023-10-08T07:48:55;102419.97;;;15.46;100.00
78845;BME280;68195;50.854;2.860;2023-10-08T07:51:25;102405.91;;;15.47;100.00
78845;BME280;68195;50.854;2.860;2023-10-08T07:53:55;102410.50;;;15.63;100.00
78845;BME280;68195;50.854;2.860;2023-10-08T07:56:23;102411.56;;;15.79;100.00
78845;BME280;68195;50.854;2.860;2023-10-08T07:58:52;102375.94;;;15.70;100.00
78845;BME280;68195;50.854;2.860;2023-10-08T08:01:21;102418.34;;;16.04;100.00
78845;BME280;68195;50.854;2.860;2023-10-08T08:03:46;102418.63;;;16.16;100.00
78845;BME280;68195;50.854;2.860;2023-10-08T08:06:14;102416.56;;;16.23;100.00
78845;BME280;68195;50.854;2.860;2023-10-08T08:08:40;102392.75;;;16.25;100.00
78845;BME280;68195;50.854;2.860;2023-10-08T08:11:07;102364.78;;;16.22;100.00
78845;BME280;68195;50.854;2.860;2023-10-08T08:13:40;102390.72;;;16.49;100.00
78845;BME280;68195;50.854;2.860;2023-10-08T08:16:10;102376.25;;;16.38;100.00
78845;BME280;68195;50.854;2.860;2023-10-08T08:18:51;102390.56;;;16.52;100.00
78845;BME280;68195;50.854;2.860;2023-10-08T08:21:20;102419.19;;;16.78;100.00
78845;BME280;68195;50.854;2.860;2023-10-08T08:23:49;102390.44;;;16.72;100.00
78845;BME280;68195;50.854;2.860;2023-10-08T08:26:23;102435.38;;;17.07;100.00
78845;BME280;68195;50.854;2.860;2023-10-08T08:28:59;102379.78;;;16.93;100.00
78845;BME280;68195;50.854;2.860;2023-10-08T08:31:31;102426.53;;;17.26;100.00
78845;BME280;68195;50.854;2.860;2023-10-08T08:33:59;102417.94;;;17.38;100.00
78845;BME280;68195;50.854;2.860;2023-10-08T08:36:27;102411.19;;;17.50;100.00
78845;BME280;68195;50.854;2.860;2023-10-08T08:38:52;102388.44;;;17.30;100.00
78845;BME280;68195;50.854;2.860;2023-10-08T08:41:20;102412.63;;;17.55;100.00
78845;BME280;68195;50.854;2.860;2023-10-08T08:43:50;102359.19;;;17.34;100.00
78845;BME280;68195;50.854;2.860;2023-10-08T08:46:28;102416.94;;;17.91;100.00
78845;BME280;68195;50.854;2.860;2023-10-08T08:48:55;102418.75;;;18.07;100.00
78845;BME280;68195;50.854;2.860;2023-10-08T08:51:23;102373.91;;;17.72;100.00
78845;BME280;68195;50.854;2.860;2023-10-08T08:53:48;102404.50;;;18.09;100.00
78845;BME280;68195;50.854;2.860;2023-10-08T08:56:17;102410.72;;;18.24;100.00
78845;BME280;68195;50.854;2.860;2023-10-08T08:58:48;102422.81;;;18.44;100.00
78845;BME280;68195;50.854;2.860;2023-10-08T09:01:19;102420.78;;;18.49;100.00
78845;BME280;68195;50.854;2.860;2023-10-08T09:03:47;102402.59;;;18.27;100.00
78845;BME280;68195;50.854;2.860;2023-10-08T09:06:16;102409.03;;;18.23;100.00
78845;BME280;68195;50.854;2.860;2023-10-08T09:08:42;102413.03;;;18.30;100.00
78845;BME280;68195;50.854;2.860;2023-10-08T09:11:16;102440.06;;;18.67;100.00
78845;BME280;68195;50.854;2.860;2023-10-08T09:13:42;102436.47;;;18.84;100.00
78845;BME280;68195;50.854;2.860;2023-10-08T09:16:16;102430.72;;;18.92;100.00
78845;BME280;68195;50.854;2.860;2023-10-08T09:18:47;102449.44;;;18.89;100.00
78845;BME280;68195;50.854;2.860;2023-10-08T09:21:16;102420.31;;;18.89;100.00
78845;BME280;68195;50.854;2.860;2023-10-08T09:23:48;102449.50;;;19.03;100.00
78845;BME280;68195;50.854;2.860;2023-10-08T09:26:17;102427.41;;;18.88;100.00
78845;BME280;68195;50.854;2.860;2023-10-08T09:28:49;102432.97;;;18.68;100.00
78845;BME280;68195;50.854;2.860;2023-10-08T09:31:26;102435.84;;;18.95;100.00
78845;BME280;68195;50.854;2.860;2023-10-08T09:34:01;102456.06;;;19.26;100.00
78845;BME280;68195;50.854;2.860;2023-10-08T09:36:29;102457.44;;;19.47;100.00
78845;BME280;68195;50.854;2.860;2023-10-08T09:39:06;102469.47;;;19.53;100.00
78845;BME280;68195;50.854;2.860;2023-10-08T09:41:33;102463.41;;;19.51;100.00
78845;BME280;68195;50.854;2.860;2023-10-08T09:43:59;102473.81;;;19.54;100.00
78845;BME280;68195;50.854;2.860;2023-10-08T09:46:32;102465.31;;;19.63;100.00
78845;BME280;68195;50.854;2.860;2023-10-08T09:49:01;102449.25;;;19.95;100.00
78845;BME280;68195;50.854;2.860;2023-10-08T09:51:37;102441.47;;;19.63;100.00
78845;BME280;68195;50.854;2.860;2023-10-08T09:54:17;102438.53;;;19.82;100.00
78845;BME280;68195;50.854;2.860;2023-10-08T09:56:45;102444.47;;;20.15;100.00
78845;BME280;68195;50.854;2.860;2023-10-08T09:59:12;102456.81;;;20.16;100.00
78845;BME280;68195;50.854;2.860;2023-10-08T10:01:41;102449.44;;;19.92;100.00
78845;BME280;68195;50.854;2.860;2023-10-08T10:04:22;102434.00;;;19.84;100.00
78845;BME280;68195;50.854;2.860;2023-10-08T10:06:58;102343.00;;;19.12;100.00
78845;BME280;68195;50.854;2.860;2023-10-08T10:09:35;102438.44;;;19.70;100.00
78845;BME280;68195;50.854;2.860;2023-10-08T10:12:05;102435.53;;;19.74;100.00
78845;BME280;68195;50.854;2.860;2023-10-08T10:14:55;102454.56;;;19.81;100.00
78845;BME280;68195;50.854;2.860;2023-10-08T10:17:28;102461.00;;;19.77;100.00
78845;BME280;68195;50.854;2.860;2023-10-08T10:19:56;102460.72;;;19.96;100.00
78845;BME280;68195;50.854;2.860;2023-10-08T10:24:56;102453.47;;;19.55;100.00
78845;BME280;68195;50.854;2.860;2023-10-08T10:27:25;102417.59;;;19.49;100.00
78845;BME280;68195;50.854;2.860;2023-10-08T10:29:51;102420.81;;;19.54;100.00
78845;BME280;68195;50.854;2.860;2023-10-08T10:32:28;102450.00;;;20.12;100.00
78845;BME280;68195;50.854;2.860;2023-10-08T10:34:54;102457.34;;;20.35;100.00
78845;BME280;68195;50.854;2.860;2023-10-08T10:37:19;102402.97;;;20.28;100.00
78845;BME280;68195;50.854;2.860;2023-10-08T10:39:52;102446.41;;;20.81;100.00
78845;BME280;68195;50.854;2.860;2023-10-08T10:42:20;102449.41;;;20.89;99.86
78845;BME280;68195;50.854;2.860;2023-10-08T10:44:49;102405.84;;;20.52;100.00
78845;BME280;68195;50.854;2.860;2023-10-08T10:47:15;102444.50;;;20.83;100.00
78845;BME280;68195;50.854;2.860;2023-10-08T10:49:44;102442.41;;;20.61;99.51
78845;BME280;68195;50.854;2.860;2023-10-08T10:52:25;102456.22;;;20.66;97.25
78845;BME280;68195;50.854;2.860;2023-10-08T11:00:21;102439.38;;;20.53;100.00
78845;BME280;68195;50.854;2.860;2023-10-08T11:03:07;102424.72;;;20.75;100.00
78845;BME280;68195;50.854;2.860;2023-10-08T11:05:42;102419.50;;;20.73;100.00
78845;BME280;68195;50.854;2.860;2023-10-08T11:08:13;102453.16;;;21.00;100.00
78845;BME280;68195;50.854;2.860;2023-10-08T11:10:43;102419.56;;;20.99;98.63
78845;BME280;68195;50.854;2.860;2023-10-08T11:13:20;102440.94;;;20.97;96.27
78845;BME280;68195;50.854;2.860;2023-10-08T11:15:50;102442.97;;;21.06;98.34
78845;BME280;68195;50.854;2.860;2023-10-08T11:18:22;102440.84;;;21.24;100.00
78845;BME280;68195;50.854;2.860;2023-10-08T11:20:50;102443.44;;;21.39;99.34
78845;BME280;68195;50.854;2.860;2023-10-08T11:23:33;102431.84;;;21.40;97.15
78845;BME280;68195;50.854;2.860;2023-10-08T11:26:00;102421.94;;;21.16;97.37
78845;BME280;68195;50.854;2.860;2023-10-08T11:28:36;102427.28;;;21.42;96.76
78845;BME280;68195;50.854;2.860;2023-10-08T11:31:13;102423.47;;;21.59;92.76
78845;BME280;68195;50.854;2.860;2023-10-08T11:33:45;102415.59;;;21.44;91.46
78845;BME280;68195;50.854;2.860;2023-10-08T11:36:21;102374.31;;;21.13;89.75
78845;BME280;68195;50.854;2.860;2023-10-08T11:38:57;102383.25;;;21.12;88.68
78845;BME280;68195;50.854;2.860;2023-10-08T11:41:32;102385.38;;;21.33;93.45
78845;BME280;68195;50.854;2.860;2023-10-08T11:44:09;102372.13;;;21.45;90.90
78845;BME280;68195;50.854;2.860;2023-10-08T11:46:38;102361.47;;;21.33;90.94
78845;BME280;68195;50.854;2.860;2023-10-08T11:49:04;102379.97;;;21.21;90.26
78845;BME280;68195;50.854;2.860;2023-10-08T11:51:34;102400.34;;;21.34;92.46
78845;BME280;68195;50.854;2.860;2023-10-08T11:54:02;102400.91;;;21.26;93.33
78845;BME280;68195;50.854;2.860;2023-10-08T11:56:31;102390.59;;;21.21;94.49
78845;BME280;68195;50.854;2.860;2023-10-08T11:59:02;102396.22;;;21.55;97.40
78845;BME280;68195;50.854;2.860;2023-10-08T12:01:36;102349.56;;;21.25;97.14
78845;BME280;68195;50.854;2.860;2023-10-08T12:04:06;102358.28;;;21.27;95.66
78845;BME280;68195;50.854;2.860;2023-10-08T12:06:38;102366.38;;;21.52;98.44
78845;BME280;68195;50.854;2.860;2023-10-08T12:09:06;102380.00;;;21.47;94.23
78845;BME280;68195;50.854;2.860;2023-10-08T12:11:38;102376.59;;;21.45;93.96
78845;BME280;68195;50.854;2.860;2023-10-08T12:14:05;102376.59;;;21.58;96.32
78845;BME280;68195;50.854;2.860;2023-10-08T12:16:30;102310.75;;;21.23;96.46
78845;BME280;68195;50.854;2.860;2023-10-08T12:19:03;102367.84;;;21.68;96.44
78845;BME280;68195;50.854;2.860;2023-10-08T12:21:41;102360.16;;;21.64;96.23
78845;BME280;68195;50.854;2.860;2023-10-08T12:24:07;102336.94;;;21.42;96.39
78845;BME280;68195;50.854;2.860;2023-10-08T12:26:40;102351.66;;;21.71;97.72
78845;BME280;68195;50.854;2.860;2023-10-08T12:29:13;102356.63;;;21.76;93.60
78845;BME280;68195;50.854;2.860;2023-10-08T12:31:44;102358.72;;;21.97;95.75
78845;BME280;68195;50.854;2.860;2023-10-08T12:34:16;102349.78;;;21.98;92.41
78845;BME280;68195;50.854;2.860;2023-10-08T12:36:44;102351.66;;;22.08;93.87
78845;BME280;68195;50.854;2.860;2023-10-08T12:39:17;102346.47;;;21.94;94.58
78845;BME280;68195;50.854;2.860;2023-10-08T12:41:43;102347.16;;;22.09;96.34
78845;BME280;68195;50.854;2.860;2023-10-08T12:44:10;102338.97;;;22.12;94.57
78845;BME280;68195;50.854;2.860;2023-10-08T12:46:35;102340.00;;;22.22;93.22
78845;BME280;68195;50.854;2.860;2023-10-08T12:49:03;102346.09;;;22.11;94.79
78845;BME280;68195;50.854;2.860;2023-10-08T12:51:29;102330.59;;;22.05;95.46
78845;BME280;68195;50.854;2.860;2023-10-08T12:53:59;102342.97;;;22.18;95.23
78845;BME280;68195;50.854;2.860;2023-10-08T12:56:36;102321.47;;;22.21;94.09
78845;BME280;68195;50.854;2.860;2023-10-08T12:59:10;102343.63;;;22.45;92.79
78845;BME280;68195;50.854;2.860;2023-10-08T13:01:46;102325.44;;;22.15;87.86
78845;BME280;68195;50.854;2.860;2023-10-08T13:04:18;102330.41;;;21.96;87.84
78845;BME280;68195;50.854;2.860;2023-10-08T13:06:53;102321.63;;;22.06;91.50
78845;BME280;68195;50.854;2.860;2023-10-08T13:09:22;102333.94;;;22.20;90.15
78845;BME280;68195;50.854;2.860;2023-10-08T13:11:50;102317.56;;;22.13;89.81